sensor_id;sensor_type;location;lat;lon;timestamp;pressure;altitude;pressure_sealevel;temperature
19196;BMP280;9730;48.926;11.376;2022-10-31T00:01:00;96909.94;;;8.93
19196;BMP280;9730;48.926;11.376;2022-10-31T00:03:27;96921.94;;;8.71
19196;BMP280;9730;48.926;11.376;2022-10-31T00:05:54;96926.72;;;8.59
19196;BMP280;9730;48.926;11.376;2022-10-31T00:08:20;96920.53;;;8.66
19196;BMP280;9730;48.926;11.376;2022-10-31T00:10:48;96924.22;;;8.59
19196;BMP280;9730;48.926;11.376;2022-10-31T00:13:14;96914.59;;;8.67
19196;BMP280;9730;48.926;11.376;2022-10-31T00:15:41;96926.13;;;8.54
19196;BMP280;9730;48.926;11.376;2022-10-31T00:18:09;96934.22;;;8.42
19196;BMP280;9730;48.926;11.376;2022-10-31T00:20:36;96915.44;;;8.49
19196;BMP280;9730;48.926;11.376;2022-10-31T00:23:03;96928.75;;;8.34
19196;BMP280;9730;48.926;11.376;2022-10-31T00:25:34;96926.56;;;8.45
19196;BMP280;9730;48.926;11.376;2022-10-31T00:28:03;96921.84;;;8.56
19196;BMP280;9730;48.926;11.376;2022-10-31T00:30:30;96922.28;;;8.64
19196;BMP280;9730;48.926;11.376;2022-10-31T00:32:57;96928.41;;;8.58
19196;BMP280;9730;48.926;11.376;2022-10-31T00:35:24;96930.28;;;8.55
19196;BMP280;9730;48.926;11.376;2022-10-31T00:37:52;96941.13;;;8.55
19196;BMP280;9730;48.926;11.376;2022-10-31T00:40:19;96943.41;;;8.60
19196;BMP280;9730;48.926;11.376;2022-10-31T00:42:45;96967.84;;;8.21
19196;BMP280;9730;48.926;11.376;2022-10-31T00:45:14;96982.47;;;8.13
19196;BMP280;9730;48.926;11.376;2022-10-31T00:47:40;96983.19;;;7.97
19196;BMP280;9730;48.926;11.376;2022-10-31T00:50:07;96984.34;;;7.90
19196;BMP280;9730;48.926;11.376;2022-10-31T00:52:34;96983.50;;;7.90
19196;BMP280;9730;48.926;11.376;2022-10-31T00:55:01;96977.00;;;8.04
19196;BMP280;9730;48.926;11.376;2022-10-31T00:57:28;96980.56;;;8.18
19196;BMP280;9730;48.926;11.376;2022-10-31T00:59:55;96994.38;;;8.08
19196;BMP280;9730;48.926;11.376;2022-10-31T01:02:23;96983.84;;;8.00
19196;BMP280;9730;48.926;11.376;2022-10-31T01:04:49;96986.28;;;7.84
19196;BMP280;9730;48.926;11.376;2022-10-31T01:07:16;96984.34;;;7.90
19196;BMP280;9730;48.926;11.376;2022-10-31T01:09:43;96980.97;;;8.09
19196;BMP280;9730;48.926;11.376;2022-10-31T01:12:10;96981.56;;;8.14
19196;BMP280;9730;48.926;11.376;2022-10-31T01:14:42;96990.50;;;8.01
19196;BMP280;9730;48.926;11.376;2022-10-31T01:17:09;96999.41;;;8.08
19196;BMP280;9730;48.926;11.376;2022-10-31T01:19:37;96990.81;;;8.14
19196;BMP280;9730;48.926;11.376;2022-10-31T01:22:04;96992.38;;;8.16
19196;BMP280;9730;48.926;11.376;2022-10-31T01:24:31;96994.69;;;8.21
19196;BMP280;9730;48.926;11.376;2022-10-31T01:26:57;97007.31;;;8.19
19196;BMP280;9730;48.926;11.376;2022-10-31T01:29:24;96991.91;;;8.27
19196;BMP280;9730;48.926;11.376;2022-10-31T01:31:51;97011.28;;;8.05
19196;BMP280;9730;48.926;11.376;2022-10-31T01:34:17;97010.31;;;7.89
19196;BMP280;9730;48.926;11.376;2022-10-31T01:36:45;97009.91;;;7.80
19196;BMP280;9730;48.926;11.376;2022-10-31T01:39:17;96990.09;;;7.92
19196;BMP280;9730;48.926;11.376;2022-10-31T01:41:46;96987.06;;;8.04
19196;BMP280;9730;48.926;11.376;2022-10-31T01:44:50;96980.50;;;8.20
19196;BMP280;9730;48.926;11.376;2022-10-31T01:47:20;96986.69;;;8.13
19196;BMP280;9730;48.926;11.376;2022-10-31T01:49:50;97000.09;;;8.12
19196;BMP280;9730;48.926;11.376;2022-10-31T01:52:23;97008.09;;;8.01
19196;BMP280;9730;48.926;11.376;2022-10-31T01:54:54;97026.91;;;7.73
19196;BMP280;9730;48.926;11.376;2022-10-31T01:57:22;97009.97;;;7.78
19196;BMP280;9730;48.926;11.376;2022-10-31T01:59:54;97000.16;;;7.92
19196;BMP280;9730;48.926;11.376;2022-10-31T02:02:21;97019.66;;;7.86
19196;BMP280;9730;48.926;11.376;2022-10-31T02:04:48;97012.53;;;7.77
19196;BMP280;9730;48.926;11.376;2022-10-31T02:07:22;97001.63;;;7.78
19196;BMP280;9730;48.926;11.376;2022-10-31T02:09:51;96994.22;;;7.75
19196;BMP280;9730;48.926;11.376;2022-10-31T02:12:18;96994.09;;;7.78
19196;BMP280;9730;48.926;11.376;2022-10-31T02:14:46;96984.47;;;7.87
19196;BMP280;9730;48.926;11.376;2022-10-31T02:17:13;96987.88;;;7.86
19196;BMP280;9730;48.926;11.376;2022-10-31T02:19:46;96994.25;;;7.93
19196;BMP280;9730;48.926;11.376;2022-10-31T02:22:22;96978.03;;;7.82
19196;BMP280;9730;48.926;11.376;2022-10-31T02:25:03;96995.09;;;7.74
19196;BMP280;9730;48.926;11.376;2022-10-31T02:28:00;96991.75;;;7.73
19196;BMP280;9730;48.926;11.376;2022-10-31T02:30:36;96994.88;;;7.60
19196;BMP280;9730;48.926;11.376;2022-10-31T02:33:17;96991.59;;;7.78
19196;BMP280;9730;48.926;11.376;2022-10-31T02:36:00;96992.31;;;7.80
19196;BMP280;9730;48.926;11.376;2022-10-31T02:38:38;96993.91;;;7.82
19196;BMP280;9730;48.926;11.376;2022-10-31T02:41:19;96989.69;;;7.83
19196;BMP280;9730;48.926;11.376;2022-10-31T02:43:56;97021.31;;;7.48
19196;BMP280;9730;48.926;11.376;2022-10-31T02:46:33;97015.56;;;7.65
19196;BMP280;9730;48.926;11.376;2022-10-31T02:49:07;97024.72;;;7.66
19196;BMP280;9730;48.926;11.376;2022-10-31T02:51:35;97024.47;;;7.72
19196;BMP280;9730;48.926;11.376;2022-10-31T02:54:02;97031.19;;;7.71
19196;BMP280;9730;48.926;11.376;2022-10-31T02:56:30;97025.28;;;7.72
19196;BMP280;9730;48.926;11.376;2022-10-31T02:58:59;97054.03;;;7.45
19196;BMP280;9730;48.926;11.376;2022-10-31T03:01:42;97032.81;;;7.52
19196;BMP280;9730;48.926;11.376;2022-10-31T03:04:34;97035.56;;;7.66
19196;BMP280;9730;48.926;11.376;2022-10-31T03:07:08;97028.34;;;7.79
19196;BMP280;9730;48.926;11.376;2022-10-31T03:09:43;97031.50;;;7.84
19196;BMP280;9730;48.926;11.376;2022-10-31T03:12:16;97034.94;;;7.81
19196;BMP280;9730;48.926;11.376;2022-10-31T03:14:51;97034.19;;;7.79
19196;BMP280;9730;48.926;11.376;2022-10-31T03:17:23;97037.31;;;7.84
19196;BMP280;9730;48.926;11.376;2022-10-31T03:19:54;97042.66;;;7.77
19196;BMP280;9730;48.926;11.376;2022-10-31T03:22:28;97059.59;;;7.72
19196;BMP280;9730;48.926;11.376;2022-10-31T03:24:59;97081.94;;;7.58
19196;BMP280;9730;48.926;11.376;2022-10-31T03:27:28;97081.47;;;7.70
19196;BMP280;9730;48.926;11.376;2022-10-31T03:30:00;97090.56;;;7.72
19196;BMP280;9730;48.926;11.376;2022-10-31T03:32:34;97103.47;;;7.63
19196;BMP280;9730;48.926;11.376;2022-10-31T03:35:06;97112.44;;;7.49
19196;BMP280;9730;48.926;11.376;2022-10-31T03:37:37;97115.16;;;7.44
19196;BMP280;9730;48.926;11.376;2022-10-31T03:40:09;97119.34;;;7.44
19196;BMP280;9730;48.926;11.376;2022-10-31T03:42:39;97112.44;;;7.49
19196;BMP280;9730;48.926;11.376;2022-10-31T03:45:11;97119.00;;;7.32
19196;BMP280;9730;48.926;11.376;2022-10-31T03:47:41;97108.63;;;7.19
19196;BMP280;9730;48.926;11.376;2022-10-31T03:50:11;97107.22;;;7.12
19196;BMP280;9730;48.926;11.376;2022-10-31T03:52:42;97095.69;;;7.08
19196;BMP280;9730;48.926;11.376;2022-10-31T03:55:17;97080.16;;;7.20
19196;BMP280;9730;48.926;11.376;2022-10-31T03:57:51;97085.19;;;7.20
19196;BMP280;9730;48.926;11.376;2022-10-31T04:00:19;97075.88;;;7.24
19196;BMP280;9730;48.926;11.376;2022-10-31T04:02:50;97078.06;;;7.31
19196;BMP280;9730;48.926;11.376;2022-10-31T04:05:20;97105.06;;;6.82
19196;BMP280;9730;48.926;11.376;2022-10-31T04:07:51;97107.31;;;6.89
19196;BMP280;9730;48.926;11.376;2022-10-31T04:10:19;97100.53;;;6.91
19196;BMP280;9730;48.926;11.376;2022-10-31T04:12:51;97093.25;;;6.86
19196;BMP280;9730;48.926;11.376;2022-10-31T04:15:27;97104.63;;;6.73
19196;BMP280;9730;48.926;11.376;2022-10-31T04:17:57;97088.56;;;6.77
19196;BMP280;9730;48.926;11.376;2022-10-31T04:20:33;97091.03;;;6.99
19196;BMP280;9730;48.926;11.376;2022-10-31T04:23:02;97094.41;;;6.98
19196;BMP280;9730;48.926;11.376;2022-10-31T04:25:30;97092.88;;;6.94
19196;BMP280;9730;48.926;11.376;2022-10-31T04:27:58;97110.81;;;6.86
19196;BMP280;9730;48.926;11.376;2022-10-31T04:30:25;97102.59;;;7.03
19196;BMP280;9730;48.926;11.376;2022-10-31T04:32:51;97110.63;;;6.90
19196;BMP280;9730;48.926;11.376;2022-10-31T04:35:18;97112.84;;;6.97
19196;BMP280;9730;48.926;11.376;2022-10-31T04:37:46;97119.13;;;6.86
19196;BMP280;9730;48.926;11.376;2022-10-31T04:40:13;97106.25;;;6.95
19196;BMP280;9730;48.926;11.376;2022-10-31T04:42:58;97101.47;;;7.10
19196;BMP280;9730;48.926;11.376;2022-10-31T04:45:26;97101.88;;;7.21
19196;BMP280;9730;48.926;11.376;2022-10-31T04:47:53;97109.75;;;7.12
19196;BMP280;9730;48.926;11.376;2022-10-31T04:50:21;97118.31;;;7.28
19196;BMP280;9730;48.926;11.376;2022-10-31T04:52:49;97127.88;;;7.19
19196;BMP280;9730;48.926;11.376;2022-10-31T04:55:20;97138.72;;;7.19
19196;BMP280;9730;48.926;11.376;2022-10-31T04:57:48;97147.00;;;7.00
19196;BMP280;9730;48.926;11.376;2022-10-31T05:00:18;97146.53;;;6.90
19196;BMP280;9730;48.926;11.376;2022-10-31T05:02:49;97155.47;;;6.97
19196;BMP280;9730;48.926;11.376;2022-10-31T05:05:18;97144.38;;;7.03
19196;BMP280;9730;48.926;11.376;2022-10-31T05:07:45;97147.84;;;7.00
19196;BMP280;9730;48.926;11.376;2022-10-31T05:10:15;97148.94;;;6.93
19196;BMP280;9730;48.926;11.376;2022-10-31T05:12:45;97152.09;;;6.98
19196;BMP280;9730;48.926;11.376;2022-10-31T05:15:32;97150.84;;;7.08
19196;BMP280;9730;48.926;11.376;2022-10-31T05:18:21;97154.72;;;7.17
19196;BMP280;9730;48.926;11.376;2022-10-31T05:21:07;97165.81;;;7.11
19196;BMP280;9730;48.926;11.376;2022-10-31T05:23:35;97175.31;;;6.81
19196;BMP280;9730;48.926;11.376;2022-10-31T05:26:04;97168.53;;;6.61
19196;BMP280;9730;48.926;11.376;2022-10-31T05:28:32;97145.09;;;6.62
19196;BMP280;9730;48.926;11.376;2022-10-31T05:30:59;97139.78;;;6.48
19196;BMP280;9730;48.926;11.376;2022-10-31T05:33:25;97122.16;;;6.50
19196;BMP280;9730;48.926;11.376;2022-10-31T05:36:11;97077.66;;;6.56
19196;BMP280;9730;48.926;11.376;2022-10-31T05:38:47;97072.53;;;6.81
19196;BMP280;9730;48.926;11.376;2022-10-31T05:41:24;97061.41;;;6.87
19196;BMP280;9730;48.926;11.376;2022-10-31T05:43:59;97058.03;;;6.88
19196;BMP280;9730;48.926;11.376;2022-10-31T05:46:27;97046.38;;;6.87
19196;BMP280;9730;48.926;11.376;2022-10-31T05:49:09;97041.34;;;6.87
19196;BMP280;9730;48.926;11.376;2022-10-31T05:51:54;97036.91;;;6.94
19196;BMP280;9730;48.926;11.376;2022-10-31T05:54:29;97036.13;;;6.93
19196;BMP280;9730;48.926;11.376;2022-10-31T05:56:57;97034.38;;;6.74
19196;BMP280;9730;48.926;11.376;2022-10-31T05:59:24;97028.59;;;6.93
19196;BMP280;9730;48.926;11.376;2022-10-31T06:01:50;97026.78;;;6.97
19196;BMP280;9730;48.926;11.376;2022-10-31T06:04:40;97022.91;;;7.10
19196;BMP280;9730;48.926;11.376;2022-10-31T06:07:07;97029.09;;;7.01
19196;BMP280;9730;48.926;11.376;2022-10-31T06:09:33;97031.38;;;7.07
19196;BMP280;9730;48.926;11.376;2022-10-31T06:12:01;97041.34;;;7.09
19196;BMP280;9730;48.926;11.376;2022-10-31T06:14:48;97042.69;;;6.96
19196;BMP280;9730;48.926;11.376;2022-10-31T06:17:15;97056.84;;;6.97
19196;BMP280;9730;48.926;11.376;2022-10-31T06:19:42;97067.38;;;6.85
19196;BMP280;9730;48.926;11.376;2022-10-31T06:22:10;97071.56;;;6.85
19196;BMP280;9730;48.926;11.376;2022-10-31T06:24:37;97074.66;;;6.91
19196;BMP280;9730;48.926;11.376;2022-10-31T06:27:38;97080.34;;;6.94
19196;BMP280;9730;48.926;11.376;2022-10-31T06:30:11;97072.19;;;7.11
19196;BMP280;9730;48.926;11.376;2022-10-31T06:32:38;97070.13;;;7.20
19196;BMP280;9730;48.926;11.376;2022-10-31T06:35:05;97079.69;;;7.32
19196;BMP280;9730;48.926;11.376;2022-10-31T06:37:33;97088.94;;;7.51
19196;BMP280;9730;48.926;11.376;2022-10-31T06:40:09;97101.22;;;7.57
19196;BMP280;9730;48.926;11.376;2022-10-31T06:42:58;97130.28;;;7.63
19196;BMP280;9730;48.926;11.376;2022-10-31T06:45:25;97150.38;;;7.63
19196;BMP280;9730;48.926;11.376;2022-10-31T06:48:10;97166.69;;;7.73
19196;BMP280;9730;48.926;11.376;2022-10-31T06:50:42;97190.81;;;7.96
19196;BMP280;9730;48.926;11.376;2022-10-31T06:53:09;97211.66;;;7.98
19196;BMP280;9730;48.926;11.376;2022-10-31T06:55:36;97244.72;;;8.09
19196;BMP280;9730;48.926;11.376;2022-10-31T06:58:04;97277.03;;;7.76
19196;BMP280;9730;48.926;11.376;2022-10-31T07:00:31;97292.84;;;7.99
19196;BMP280;9730;48.926;11.376;2022-10-31T07:03:06;97299.31;;;8.04
19196;BMP280;9730;48.926;11.376;2022-10-31T07:05:33;97329.22;;;8.10
19196;BMP280;9730;48.926;11.376;2022-10-31T07:08:03;97332.38;;;7.73
19196;BMP280;9730;48.926;11.376;2022-10-31T07:10:31;97329.31;;;7.88
19196;BMP280;9730;48.926;11.376;2022-10-31T07:13:03;97332.84;;;7.61
19196;BMP280;9730;48.926;11.376;2022-10-31T07:15:35;97310.56;;;7.75
19196;BMP280;9730;48.926;11.376;2022-10-31T07:18:03;97315.44;;;7.99
19196;BMP280;9730;48.926;11.376;2022-10-31T07:20:31;97302.59;;;7.85
19196;BMP280;9730;48.926;11.376;2022-10-31T07:22:58;97296.38;;;8.36
19196;BMP280;9730;48.926;11.376;2022-10-31T07:25:26;97303.66;;;8.42
19196;BMP280;9730;48.926;11.376;2022-10-31T07:28:26;97316.81;;;8.48
19196;BMP280;9730;48.926;11.376;2022-10-31T07:30:55;97315.34;;;8.43
19196;BMP280;9730;48.926;11.376;2022-10-31T07:33:22;97323.94;;;8.59
19196;BMP280;9730;48.926;11.376;2022-10-31T07:36:20;97322.31;;;8.37
19196;BMP280;9730;48.926;11.376;2022-10-31T07:38:47;97307.31;;;8.55
19196;BMP280;9730;48.926;11.376;2022-10-31T07:41:14;97307.47;;;8.52
19196;BMP280;9730;48.926;11.376;2022-10-31T07:43:43;97315.41;;;8.42
19196;BMP280;9730;48.926;11.376;2022-10-31T07:46:16;97306.47;;;8.56
19196;BMP280;9730;48.926;11.376;2022-10-31T07:49:02;97306.75;;;8.68
19196;BMP280;9730;48.926;11.376;2022-10-31T07:51:54;97317.38;;;8.55
19196;BMP280;9730;48.926;11.376;2022-10-31T07:54:40;97311.22;;;8.62
19196;BMP280;9730;48.926;11.376;2022-10-31T07:57:08;97312.78;;;8.84
19196;BMP280;9730;48.926;11.376;2022-10-31T07:59:34;97312.72;;;9.04
19196;BMP280;9730;48.926;11.376;2022-10-31T08:02:02;97333.84;;;9.01
19196;BMP280;9730;48.926;11.376;2022-10-31T08:04:29;97333.09;;;9.18
19196;BMP280;9730;48.926;11.376;2022-10-31T08:07:14;97347.41;;;9.36
19196;BMP280;9730;48.926;11.376;2022-10-31T08:09:46;97355.16;;;9.50
19196;BMP280;9730;48.926;11.376;2022-10-31T08:12:23;97368.19;;;9.77
19196;BMP280;9730;48.926;11.376;2022-10-31T08:14:51;97386.31;;;10.04
19196;BMP280;9730;48.926;11.376;2022-10-31T08:17:20;97418.69;;;9.93
19196;BMP280;9730;48.926;11.376;2022-10-31T08:19:53;97438.16;;;9.71
19196;BMP280;9730;48.926;11.376;2022-10-31T08:22:25;97416.56;;;9.27
19196;BMP280;9730;48.926;11.376;2022-10-31T08:24:52;97402.47;;;9.80
19196;BMP280;9730;48.926;11.376;2022-10-31T08:27:19;97424.22;;;9.44
19196;BMP280;9730;48.926;11.376;2022-10-31T08:29:46;97397.78;;;9.91
19196;BMP280;9730;48.926;11.376;2022-10-31T08:32:13;97396.38;;;10.39
19196;BMP280;9730;48.926;11.376;2022-10-31T08:35:00;97430.19;;;10.70
19196;BMP280;9730;48.926;11.376;2022-10-31T08:37:56;97469.06;;;10.66
19196;BMP280;9730;48.926;11.376;2022-10-31T08:40:26;97484.13;;;11.01
19196;BMP280;9730;48.926;11.376;2022-10-31T08:42:57;97519.13;;;11.25
19196;BMP280;9730;48.926;11.376;2022-10-31T08:45:25;97546.28;;;11.56
19196;BMP280;9730;48.926;11.376;2022-10-31T08:47:52;97572.72;;;11.66
19196;BMP280;9730;48.926;11.376;2022-10-31T08:50:24;97614.81;;;11.99
19196;BMP280;9730;48.926;11.376;2022-10-31T08:52:50;97627.31;;;12.02
19196;BMP280;9730;48.926;11.376;2022-10-31T08:55:17;97635.03;;;11.99
19196;BMP280;9730;48.926;11.376;2022-10-31T08:58:15;97649.91;;;11.88
19196;BMP280;9730;48.926;11.376;2022-10-31T09:00:49;97651.47;;;12.07
19196;BMP280;9730;48.926;11.376;2022-10-31T09:03:20;97647.78;;;12.29
19196;BMP280;9730;48.926;11.376;2022-10-31T09:05:49;97661.09;;;12.01
19196;BMP280;9730;48.926;11.376;2022-10-31T09:08:16;97630.50;;;11.55
19196;BMP280;9730;48.926;11.376;2022-10-31T09:10:45;97599.97;;;11.59
19196;BMP280;9730;48.926;11.376;2022-10-31T09:13:16;97606.78;;;12.08
19196;BMP280;9730;48.926;11.376;2022-10-31T09:16:09;97583.34;;;11.72
19196;BMP280;9730;48.926;11.376;2022-10-31T09:18:35;97575.84;;;12.03
19196;BMP280;9730;48.926;11.376;2022-10-31T09:21:04;97566.28;;;11.25
19196;BMP280;9730;48.926;11.376;2022-10-31T09:23:30;97536.34;;;11.17
19196;BMP280;9730;48.926;11.376;2022-10-31T09:26:00;97509.31;;;11.87
19196;BMP280;9730;48.926;11.376;2022-10-31T09:28:30;97527.63;;;11.90
19196;BMP280;9730;48.926;11.376;2022-10-31T09:31:02;97528.44;;;12.54
19196;BMP280;9730;48.926;11.376;2022-10-31T09:33:48;97552.19;;;12.36
19196;BMP280;9730;48.926;11.376;2022-10-31T09:36:42;97547.72;;;12.56
19196;BMP280;9730;48.926;11.376;2022-10-31T09:39:17;97563.94;;;12.83
19196;BMP280;9730;48.926;11.376;2022-10-31T09:42:05;97581.34;;;12.73
19196;BMP280;9730;48.926;11.376;2022-10-31T09:44:43;97580.88;;;12.19
19196;BMP280;9730;48.926;11.376;2022-10-31T09:47:38;97556.75;;;12.29
19196;BMP280;9730;48.926;11.376;2022-10-31T09:50:43;97547.81;;;12.70
19196;BMP280;9730;48.926;11.376;2022-10-31T09:53:37;97546.00;;;12.72
19196;BMP280;9730;48.926;11.376;2022-10-31T09:56:08;97522.34;;;12.27
19196;BMP280;9730;48.926;11.376;2022-10-31T09:58:40;97500.00;;;12.50
19196;BMP280;9730;48.926;11.376;2022-10-31T10:01:17;97495.22;;;12.29
19196;BMP280;9730;48.926;11.376;2022-10-31T10:03:49;97471.41;;;12.64
19196;BMP280;9730;48.926;11.376;2022-10-31T10:06:47;97457.97;;;12.48
19196;BMP280;9730;48.926;11.376;2022-10-31T10:09:36;97463.78;;;13.24
19196;BMP280;9730;48.926;11.376;2022-10-31T10:12:33;97493.53;;;13.63
19196;BMP280;9730;48.926;11.376;2022-10-31T10:15:19;97508.13;;;13.01
19196;BMP280;9730;48.926;11.376;2022-10-31T10:17:52;97504.78;;;13.44
19196;BMP280;9730;48.926;11.376;2022-10-31T10:20:31;97519.78;;;13.90
19196;BMP280;9730;48.926;11.376;2022-10-31T10:23:13;97543.69;;;14.00
19196;BMP280;9730;48.926;11.376;2022-10-31T10:25:47;97541.34;;;14.38
19196;BMP280;9730;48.926;11.376;2022-10-31T10:28:20;97575.09;;;15.21
19196;BMP280;9730;48.926;11.376;2022-10-31T10:30:50;97597.00;;;14.95
19196;BMP280;9730;48.926;11.376;2022-10-31T10:33:20;97596.88;;;15.25
19196;BMP280;9730;48.926;11.376;2022-10-31T10:35:49;97617.31;;;15.09
19196;BMP280;9730;48.926;11.376;2022-10-31T10:38:31;97616.88;;;15.03
19196;BMP280;9730;48.926;11.376;2022-10-31T10:41:10;97594.75;;;14.91
19196;BMP280;9730;48.926;11.376;2022-10-31T10:43:39;97592.94;;;14.93
19196;BMP280;9730;48.926;11.376;2022-10-31T10:46:16;97594.81;;;16.32
19196;BMP280;9730;48.926;11.376;2022-10-31T10:49:09;97638.53;;;17.58
19196;BMP280;9730;48.926;11.376;2022-10-31T10:51:41;97651.75;;;17.62
19196;BMP280;9730;48.926;11.376;2022-10-31T10:54:18;97654.47;;;17.01
19196;BMP280;9730;48.926;11.376;2022-10-31T10:56:59;97635.72;;;16.29
19196;BMP280;9730;48.926;11.376;2022-10-31T10:59:27;97622.50;;;16.36
19196;BMP280;9730;48.926;11.376;2022-10-31T11:01:54;97607.84;;;16.27
19196;BMP280;9730;48.926;11.376;2022-10-31T11:04:27;97605.97;;;16.54
19196;BMP280;9730;48.926;11.376;2022-10-31T11:06:58;97608.44;;;16.55
19196;BMP280;9730;48.926;11.376;2022-10-31T11:09:25;97589.91;;;16.53
19196;BMP280;9730;48.926;11.376;2022-10-31T11:11:54;97588.47;;;16.49
19196;BMP280;9730;48.926;11.376;2022-10-31T11:14:20;97585.00;;;16.63
19196;BMP280;9730;48.926;11.376;2022-10-31T11:16:50;97572.13;;;16.77
19196;BMP280;9730;48.926;11.376;2022-10-31T11:19:19;97565.19;;;16.79
19196;BMP280;9730;48.926;11.376;2022-10-31T11:21:47;97557.22;;;16.48
19196;BMP280;9730;48.926;11.376;2022-10-31T11:24:16;97548.34;;;16.53
19196;BMP280;9730;48.926;11.376;2022-10-31T11:26:45;97551.44;;;17.04
19196;BMP280;9730;48.926;11.376;2022-10-31T11:29:17;97556.22;;;17.32
19196;BMP280;9730;48.926;11.376;2022-10-31T11:31:46;97552.25;;;17.28
19196;BMP280;9730;48.926;11.376;2022-10-31T11:34:25;97547.88;;;17.30
19196;BMP280;9730;48.926;11.376;2022-10-31T11:36:54;97548.88;;;17.51
19196;BMP280;9730;48.926;11.376;2022-10-31T11:39:22;97546.09;;;17.54
19196;BMP280;9730;48.926;11.376;2022-10-31T11:41:50;97521.81;;;16.91
19196;BMP280;9730;48.926;11.376;2022-10-31T11:44:21;97510.81;;;17.14
19196;BMP280;9730;48.926;11.376;2022-10-31T11:46:51;97516.28;;;17.33
19196;BMP280;9730;48.926;11.376;2022-10-31T11:49:19;97518.75;;;17.56
19196;BMP280;9730;48.926;11.376;2022-10-31T11:51:49;97501.16;;;17.30
19196;BMP280;9730;48.926;11.376;2022-10-31T11:54:22;97507.44;;;17.37
19196;BMP280;9730;48.926;11.376;2022-10-31T11:56:50;97499.13;;;17.91
19196;BMP280;9730;48.926;11.376;2022-10-31T11:59:23;97510.06;;;18.78
19196;BMP280;9730;48.926;11.376;2022-10-31T12:01:52;97536.16;;;19.35
19196;BMP280;9730;48.926;11.376;2022-10-31T12:04:24;97536.31;;;18.91
19196;BMP280;9730;48.926;11.376;2022-10-31T12:06:54;97514.19;;;18.48
19196;BMP280;9730;48.926;11.376;2022-10-31T12:09:22;97517.06;;;18.76
19196;BMP280;9730;48.926;11.376;2022-10-31T12:12:10;97525.53;;;18.77
19196;BMP280;9730;48.926;11.376;2022-10-31T12:14:52;97514.75;;;19.16
19196;BMP280;9730;48.926;11.376;2022-10-31T12:17:23;97508.22;;;18.80
19196;BMP280;9730;48.926;11.376;2022-10-31T12:20:00;97492.72;;;18.40
19196;BMP280;9730;48.926;11.376;2022-10-31T12:22:37;97507.84;;;18.96
19196;BMP280;9730;48.926;11.376;2022-10-31T12:25:19;97506.31;;;18.93
19196;BMP280;9730;48.926;11.376;2022-10-31T12:30:49;97512.34;;;18.61
19196;BMP280;9730;48.926;11.376;2022-10-31T12:33:28;97489.69;;;17.80
19196;BMP280;9730;48.926;11.376;2022-10-31T12:36:10;97485.41;;;17.81
19196;BMP280;9730;48.926;11.376;2022-10-31T12:38:57;97481.94;;;18.04
19196;BMP280;9730;48.926;11.376;2022-10-31T12:41:39;97490.88;;;17.98
19196;BMP280;9730;48.926;11.376;2022-10-31T12:44:18;97494.97;;;18.22
19196;BMP280;9730;48.926;11.376;2022-10-31T12:47:05;97490.75;;;18.54
19196;BMP280;9730;48.926;11.376;2022-10-31T12:49:46;97494.28;;;18.84
19196;BMP280;9730;48.926;11.376;2022-10-31T12:52:33;97499.72;;;18.91
19196;BMP280;9730;48.926;11.376;2022-10-31T12:55:16;97504.81;;;18.91
19196;BMP280;9730;48.926;11.376;2022-10-31T12:57:47;97490.69;;;18.76
19196;BMP280;9730;48.926;11.376;2022-10-31T13:00:16;97492.41;;;18.86
19196;BMP280;9730;48.926;11.376;2022-10-31T13:02:49;97484.75;;;18.86
19196;BMP280;9730;48.926;11.376;2022-10-31T13:05:21;97481.84;;;18.80
19196;BMP280;9730;48.926;11.376;2022-10-31T13:07:52;97469.31;;;18.77
19196;BMP280;9730;48.926;11.376;2022-10-31T13:10:23;97467.34;;;18.80
19196;BMP280;9730;48.926;11.376;2022-10-31T13:12:57;97466.88;;;18.75
19196;BMP280;9730;48.926;11.376;2022-10-31T13:15:27;97458.72;;;18.81
19196;BMP280;9730;48.926;11.376;2022-10-31T13:17:57;97446.91;;;18.80
19196;BMP280;9730;48.926;11.376;2022-10-31T13:20:28;97445.38;;;18.89
19196;BMP280;9730;48.926;11.376;2022-10-31T13:23:10;97449.84;;;18.96
19196;BMP280;9730;48.926;11.376;2022-10-31T13:25:46;97451.34;;;18.99
19196;BMP280;9730;48.926;11.376;2022-10-31T13:28:23;97447.53;;;18.93
19196;BMP280;9730;48.926;11.376;2022-10-31T13:30:52;97436.34;;;19.16
19196;BMP280;9730;48.926;11.376;2022-10-31T13:33:25;97442.34;;;19.56
19196;BMP280;9730;48.926;11.376;2022-10-31T13:36:03;97447.13;;;19.60
19196;BMP280;9730;48.926;11.376;2022-10-31T13:38:33;97446.78;;;19.83
19196;BMP280;9730;48.926;11.376;2022-10-31T13:41:01;97443.44;;;20.03
19196;BMP280;9730;48.926;11.376;2022-10-31T13:43:32;97442.59;;;19.93
19196;BMP280;9730;48.926;11.376;2022-10-31T13:46:00;97452.78;;;20.23
19196;BMP280;9730;48.926;11.376;2022-10-31T13:48:37;97454.50;;;20.13
19196;BMP280;9730;48.926;11.376;2022-10-31T13:51:06;97450.63;;;20.19
19196;BMP280;9730;48.926;11.376;2022-10-31T13:53:38;97448.50;;;20.24
19196;BMP280;9730;48.926;11.376;2022-10-31T13:56:14;97445.91;;;20.14
19196;BMP280;9730;48.926;11.376;2022-10-31T13:58:53;97437.88;;;19.98
19196;BMP280;9730;48.926;11.376;2022-10-31T14:01:20;97432.88;;;19.97
19196;BMP280;9730;48.926;11.376;2022-10-31T14:03:57;97427.47;;;19.90
19196;BMP280;9730;48.926;11.376;2022-10-31T14:06:35;97401.88;;;19.00
19196;BMP280;9730;48.926;11.376;2022-10-31T14:09:02;97406.41;;;18.96
19196;BMP280;9730;48.926;11.376;2022-10-31T14:11:29;97390.50;;;18.72
19196;BMP280;9730;48.926;11.376;2022-10-31T14:13:57;97386.72;;;18.56
19196;BMP280;9730;48.926;11.376;2022-10-31T14:16:25;97404.03;;;18.53
19196;BMP280;9730;48.926;11.376;2022-10-31T14:19:00;97398.72;;;18.45
19196;BMP280;9730;48.926;11.376;2022-10-31T14:21:29;97379.06;;;18.03
19196;BMP280;9730;48.926;11.376;2022-10-31T14:23:57;97367.38;;;17.68
19196;BMP280;9730;48.926;11.376;2022-10-31T14:26:35;97377.34;;;17.60
19196;BMP280;9730;48.926;11.376;2022-10-31T14:29:21;97370.75;;;17.58
19196;BMP280;9730;48.926;11.376;2022-10-31T14:32:14;97369.13;;;17.67
19196;BMP280;9730;48.926;11.376;2022-10-31T14:34:52;97356.94;;;17.60
19196;BMP280;9730;48.926;11.376;2022-10-31T14:40:26;97334.09;;;17.37
19196;BMP280;9730;48.926;11.376;2022-10-31T14:43:19;97344.53;;;17.34
19196;BMP280;9730;48.926;11.376;2022-10-31T14:45:54;97328.91;;;17.27
19196;BMP280;9730;48.926;11.376;2022-10-31T14:48:37;97329.53;;;17.07
19196;BMP280;9730;48.926;11.376;2022-10-31T14:51:12;97336.25;;;17.08
19196;BMP280;9730;48.926;11.376;2022-10-31T14:53:44;97343.78;;;17.10
19196;BMP280;9730;48.926;11.376;2022-10-31T14:56:14;97359.34;;;17.18